Time;durP1;ratioP1;P1;durP2;ratioP2;P2;SDS_P1;SDS_P2;PMS_P1;PMS_P2;Temp;Humidity;BMP_temperature;BMP_pressure;BME280_temperature;BME280_humidity;BME280_pressure;Samples;Min_cycle;Max_cycle;Signal;HPM_P1;HPM_P2
2022/12/27 00:01:19;;;;;;;107.38;69.72;;;14.90;99.90;;;;;;5033166;28;20045;-68
2022/12/27 00:04:23;;;;;;;105.35;68.45;;;13.60;99.90;;;;;;5032922;28;20509;-68
2022/12/27 00:07:26;;;;;;;108.53;75.10;;;13.60;99.90;;;;;;5031277;28;20052;-68
2022/12/27 00:10:31;;;;;;;112.35;72.82;;;13.60;99.90;;;;;;5032931;28;20053;-68
2022/12/27 00:13:35;;;;;;;105.72;71.30;;;13.60;99.90;;;;;;5032893;28;20065;-68
2022/12/27 00:16:39;;;;;;;110.28;71.22;;;13.60;99.90;;;;;;5032618;28;20404;-68
2022/12/27 00:19:42;;;;;;;109.53;71.57;;;13.60;99.90;;;;;;5032838;28;20045;-68
2022/12/27 00:22:46;;;;;;;103.43;71.28;;;13.60;99.90;;;;;;5032846;28;20187;-68
2022/12/27 00:25:51;;;;;;;101.40;68.18;;;13.60;99.90;;;;;;5032444;28;20048;-68
2022/12/27 00:28:56;;;;;;;92.85;65.35;;;13.70;99.90;;;;;;5032661;28;20059;-68
2022/12/27 00:32:00;;;;;;;98.93;66.85;;;13.60;99.90;;;;;;5031651;28;20048;-68
2022/12/27 00:35:04;;;;;;;110.80;68.40;;;13.60;99.90;;;;;;5043242;28;20045;-68
2022/12/27 00:38:08;;;;;;;98.78;67.22;;;13.60;99.90;;;;;;5032341;28;20053;-68
2022/12/27 00:41:13;;;;;;;104.88;67.85;;;13.60;99.90;;;;;;5032367;28;20473;-68
2022/12/27 00:44:17;;;;;;;102.82;71.18;;;13.90;99.90;;;;;;5031143;28;20072;-68
2022/12/27 00:47:21;;;;;;;103.22;71.85;;;12.00;99.90;;;;;;5031919;28;20432;-68
2022/12/27 00:50:25;;;;;;;98.28;69.00;;;13.60;99.90;;;;;;5031137;28;20049;-68
2022/12/27 00:53:31;;;;;;;93.22;66.53;;;13.50;99.90;;;;;;5032134;28;20072;-68
2022/12/27 00:56:35;;;;;;;83.30;59.33;;;15.60;99.90;;;;;;5031753;28;20045;-68
2022/12/27 00:59:39;;;;;;;84.57;57.45;;;13.30;99.90;;;;;;5031875;28;20048;-68
2022/12/27 01:02:43;;;;;;;81.72;55.10;;;13.40;99.90;;;;;;5032029;28;20044;-68
2022/12/27 01:05:47;;;;;;;77.07;51.78;;;;;;;;;;5031637;28;20056;-68
2022/12/27 01:08:51;;;;;;;71.00;48.60;;;13.50;99.90;;;;;;5031904;28;20044;-68
2022/12/27 01:11:55;;;;;;;65.65;46.25;;;13.50;99.90;;;;;;5031829;28;20048;-68
2022/12/27 01:14:59;;;;;;;68.53;47.13;;;13.70;99.90;;;;;;5031682;28;20040;-68
2022/12/27 01:18:03;;;;;;;71.03;47.13;;;13.60;99.90;;;;;;5030050;28;20520;-68
2022/12/27 01:21:08;;;;;;;73.15;48.20;;;16.30;99.90;;;;;;5042274;28;20048;-68
2022/12/27 01:24:12;;;;;;;77.20;48.40;;;13.60;99.90;;;;;;5031326;28;20068;-67
2022/12/27 01:27:16;;;;;;;68.22;47.33;;;13.70;99.90;;;;;;5031241;28;20044;-68
2022/12/27 01:30:22;;;;;;;71.35;48.90;;;13.60;99.90;;;;;;5031445;28;20044;-68
2022/12/27 01:33:26;;;;;;;74.65;48.03;;;18.00;99.90;;;;;;5031267;28;20068;-68
2022/12/27 01:36:30;;;;;;;64.97;44.65;;;13.60;99.90;;;;;;5030643;28;20524;-68
2022/12/27 01:39:34;;;;;;;50.88;34.17;;;13.50;99.90;;;;;;5031510;28;20056;-68
2022/12/27 01:42:54;;;;;;;47.72;33.05;;;12.20;99.90;;;;;;5031550;28;20048;-68
2022/12/27 01:45:58;;;;;;;47.42;29.92;;;13.50;99.90;;;;;;5041796;28;20064;-68
2022/12/27 01:49:02;;;;;;;42.55;28.88;;;13.40;99.90;;;;;;5031394;28;20064;-68
2022/12/27 01:52:08;;;;;;;45.42;30.13;;;13.40;99.90;;;;;;5031459;28;20504;-68
2022/12/27 01:55:31;;;;;;;44.53;29.33;;;13.40;99.90;;;;;;5031188;28;20040;-68
2022/12/27 01:58:58;;;;;;;41.90;30.08;;;13.40;99.90;;;;;;5030959;28;20523;-68
2022/12/27 02:02:03;;;;;;;39.90;29.70;;;13.40;99.90;;;;;;5030883;28;20052;-68
2022/12/27 02:05:11;;;;;;;47.75;30.02;;;13.50;99.90;;;;;;5031011;28;20052;-68
2022/12/27 02:08:21;;;;;;;47.92;30.27;;;13.50;99.90;;;;;;5030142;28;20052;-68
2022/12/27 02:11:50;;;;;;;52.20;33.95;;;13.50;99.90;;;;;;5031031;28;20068;-68
2022/12/27 02:14:54;;;;;;;54.95;35.67;;;13.30;99.90;;;;;;5030942;28;20052;-68
2022/12/27 02:17:58;;;;;;;55.53;36.75;;;11.20;99.90;;;;;;5030171;28;20393;-68
2022/12/27 02:21:34;;;;;;;53.65;37.50;;;13.30;99.90;;;;;;5029948;28;20053;-68
2022/12/27 02:25:02;;;;;;;49.05;34.95;;;13.40;99.90;;;;;;5022311;28;20192;-68
2022/12/27 02:28:27;;;;;;;58.20;36.50;;;13.40;99.90;;;;;;5030885;28;20104;-68
2022/12/27 02:32:12;;;;;;;63.03;39.10;;;12.20;99.90;;;;;;5034565;28;20064;-68
2022/12/27 02:35:28;;;;;;;60.22;40.35;;;13.50;99.90;;;;;;5033456;28;20056;-68
2022/12/27 02:38:40;;;;;;;59.35;37.80;;;13.00;99.90;;;;;;5034656;28;20044;-68
2022/12/27 02:53:03;;;;;;;56.55;38.72;;;12.60;99.90;;;;;;5034274;28;20397;-68
2022/12/27 03:04:03;;;;;;;55.58;37.92;;;11.30;99.90;;;;;;5034084;28;20144;-68
2022/12/27 03:07:24;;;;;;;63.75;37.90;;;12.80;99.90;;;;;;4994186;28;20242;-68
2022/12/27 03:17:55;;;;;;;57.03;36.90;;;10.60;99.90;;;;;;5034151;28;20052;-68
2022/12/27 03:35:11;;;;;;;53.83;34.95;;;11.90;99.90;;;;;;5044328;28;20060;-68
2022/12/27 03:38:16;;;;;;;54.83;37.22;;;;;;;;;;5033407;28;20039;-68
2022/12/27 03:44:51;;;;;;;48.60;33.75;;;;;;;;;;5033480;28;20080;-68
2022/12/27 03:48:03;;;;;;;48.72;32.03;;;15.90;99.90;;;;;;5033204;28;20041;-68
2022/12/27 03:51:08;;;;;;;49.72;33.65;;;13.10;99.90;;;;;;5033285;28;20048;-68
2022/12/27 03:54:25;;;;;;;45.40;31.90;;;14.10;99.90;;;;;;5033245;28;20041;-68
2022/12/27 03:57:29;;;;;;;53.25;33.25;;;14.10;99.90;;;;;;5032865;28;20072;-68
2022/12/27 04:00:33;;;;;;;52.38;34.47;;;13.20;99.90;;;;;;5033728;28;20041;-68
2022/12/27 04:03:37;;;;;;;52.85;35.25;;;;;;;;;;5033068;28;20052;-68
2022/12/27 04:06:41;;;;;;;47.75;33.10;;;13.20;99.90;;;;;;5032882;28;20060;-68
2022/12/27 04:36:46;;;;;;;45.47;30.40;;;;;;;;;;5032684;28;20048;-68
2022/12/27 04:56:43;;;;;;;49.92;32.20;;;13.10;99.90;;;;;;5031827;28;20052;-68
2022/12/27 05:03:14;;;;;;;47.17;33.40;;;13.30;99.90;;;;;;5031943;28;20068;-68
2022/12/27 05:06:18;;;;;;;50.05;34.70;;;11.40;99.90;;;;;;5031746;28;20409;-68
2022/12/27 05:16:09;;;;;;;50.33;34.30;;;13.10;99.90;;;;;;5031715;28;20036;-68
2022/12/27 05:19:14;;;;;;;47.63;33.80;;;13.00;99.90;;;;;;5031370;28;20048;-68
2022/12/27 05:25:41;;;;;;;49.45;34.95;;;13.30;99.90;;;;;;5031495;28;20060;-68
2022/12/27 05:28:47;;;;;;;56.08;35.63;;;12.90;99.90;;;;;;5042097;28;20464;-68
2022/12/27 05:31:51;;;;;;;48.90;35.08;;;12.90;99.90;;;;;;5031348;28;20040;-68
2022/12/27 05:34:55;;;;;;;52.78;35.42;;;13.00;99.90;;;;;;5031339;28;20049;-68
2022/12/27 05:37:59;;;;;;;57.58;36.38;;;;;;;;;;5030608;28;20499;-68
2022/12/27 05:41:03;;;;;;;49.80;36.05;;;14.20;99.90;;;;;;5031487;28;20060;-68
2022/12/27 05:44:07;;;;;;;54.00;35.50;;;;;;;;;;5031211;28;20397;-68
2022/12/27 05:47:11;;;;;;;52.35;35.38;;;13.00;99.90;;;;;;5031071;28;20060;-68
2022/12/27 05:50:16;;;;;;;46.10;33.35;;;;;;;;;;5031105;28;20048;-68
2022/12/27 05:53:19;;;;;;;46.75;30.73;;;15.50;99.90;;;;;;5031205;28;20056;-68
2022/12/27 05:56:23;;;;;;;45.35;29.48;;;13.10;99.90;;;;;;5030862;28;20048;-67
2022/12/27 05:59:27;;;;;;;45.38;31.00;;;13.20;99.90;;;;;;5030976;28;20064;-67
2022/12/27 06:02:31;;;;;;;40.35;29.10;;;11.70;99.90;;;;;;5030825;28;20041;-68
2022/12/27 06:05:35;;;;;;;45.85;30.55;;;14.40;99.90;;;;;;5030555;28;20052;-68
2022/12/27 06:08:40;;;;;;;41.63;29.15;;;15.90;99.90;;;;;;5029976;28;20049;-67
2022/12/27 06:11:44;;;;;;;46.90;30.17;;;13.20;99.90;;;;;;5030735;28;20368;-68
2022/12/27 06:14:48;;;;;;;48.85;29.60;;;13.10;99.90;;;;;;5030733;28;20504;-67
2022/12/27 06:17:52;;;;;;;46.20;29.30;;;13.10;99.90;;;;;;5032666;28;20041;-68
2022/12/27 06:21:11;;;;;;;48.95;30.83;;;13.30;99.90;;;;;;5030722;28;20508;-68
2022/12/27 06:24:16;;;;;;;45.08;29.70;;;13.60;99.90;;;;;;5030771;28;20096;-67
2022/12/27 06:27:19;;;;;;;45.75;30.20;;;13.20;99.90;;;;;;5041562;28;20056;-68
2022/12/27 06:30:24;;;;;;;41.58;28.52;;;;;;;;;;5030557;28;20037;-67
2022/12/27 06:33:28;;;;;;;42.03;28.98;;;13.20;99.90;;;;;;5030664;28;20056;-68
2022/12/27 06:36:32;;;;;;;43.40;28.00;;;14.90;99.90;;;;;;5030880;28;20397;-67
2022/12/27 06:39:36;;;;;;;39.10;27.75;;;13.20;99.90;;;;;;5030851;28;20049;-68
2022/12/27 06:42:41;;;;;;;34.92;25.90;;;;;;;;;;5030706;28;20052;-68
2022/12/27 06:45:45;;;;;;;43.15;27.85;;;;;;;;;;5029706;28;20405;-68
2022/12/27 06:48:49;;;;;;;44.17;28.15;;;13.30;99.90;;;;;;5041538;28;20036;-69
2022/12/27 06:51:53;;;;;;;41.58;27.33;;;12.30;99.90;;;;;;5041251;28;20049;-68
2022/12/27 06:54:58;;;;;;;45.05;28.30;;;13.30;99.90;;;;;;5040888;28;20417;-68
2022/12/27 06:58:02;;;;;;;45.88;26.33;;;13.20;99.90;;;;;;5040926;28;20060;-68
2022/12/27 07:01:07;;;;;;;45.40;28.73;;;13.30;99.90;;;;;;5030268;28;20536;-68
2022/12/27 07:04:10;;;;;;;39.83;26.02;;;13.30;99.90;;;;;;5030247;28;20068;-68
2022/12/27 07:07:15;;;;;;;47.15;27.90;;;14.70;99.90;;;;;;5030131;28;20053;-68
2022/12/27 07:10:19;;;;;;;44.90;29.55;;;13.20;99.90;;;;;;5030437;28;20045;-68
2022/12/27 07:13:23;;;;;;;36.67;27.75;;;13.30;99.90;;;;;;5030302;28;20393;-68
2022/12/27 07:16:29;;;;;;;49.03;28.40;;;13.30;99.90;;;;;;5030381;28;20064;-68
2022/12/27 07:19:33;;;;;;;46.45;27.52;;;13.40;99.90;;;;;;5033884;28;20045;-68
2022/12/27 07:22:37;;;;;;;45.45;26.42;;;13.30;99.90;;;;;;5033517;28;20041;-68
2022/12/27 07:25:41;;;;;;;45.83;26.73;;;13.40;99.90;;;;;;5043883;28;20052;-68
2022/12/27 07:28:46;;;;;;;46.03;25.58;;;13.40;99.90;;;;;;5033358;28;20049;-68
2022/12/27 07:31:50;;;;;;;45.60;25.60;;;13.40;99.90;;;;;;5033736;28;20523;-68
2022/12/27 07:34:54;;;;;;;42.85;25.98;;;13.50;99.90;;;;;;5033003;28;20512;-68
2022/12/27 07:37:58;;;;;;;49.47;26.13;;;13.50;99.90;;;;;;5033140;28;20060;-68
2022/12/27 07:41:02;;;;;;;51.97;28.08;;;13.60;99.90;;;;;;5033280;28;20045;-68
2022/12/27 07:44:06;;;;;;;46.72;26.40;;;13.70;99.90;;;;;;5033653;28;20048;-68
2022/12/27 07:47:10;;;;;;;41.13;24.95;;;13.70;99.90;;;;;;5032812;28;20449;-68
2022/12/27 07:50:14;;;;;;;37.30;25.40;;;13.80;99.90;;;;;;5032952;28;20044;-68
2022/12/27 07:53:18;;;;;;;48.50;26.35;;;13.80;99.90;;;;;;5032663;28;20524;-68
2022/12/27 07:56:24;;;;;;;42.17;24.63;;;13.80;99.90;;;;;;5031205;28;20065;-67
2022/12/27 07:59:29;;;;;;;38.10;24.02;;;13.80;99.90;;;;;;5032989;28;20044;-68
2022/12/27 08:02:33;;;;;;;39.90;25.38;;;13.80;99.90;;;;;;5033333;28;20040;-68
2022/12/27 08:05:48;;;;;;;39.70;23.80;;;13.90;99.90;;;;;;5019813;28;20057;-69
2022/12/27 08:08:54;;;;;;;40.80;24.27;;;14.00;99.90;;;;;;5032244;28;20041;-68
2022/12/27 08:11:58;;;;;;;40.25;23.63;;;14.00;99.90;;;;;;5033197;28;20048;-69
2022/12/27 08:15:03;;;;;;;41.65;23.50;;;14.10;99.90;;;;;;5043242;28;20504;-69
2022/12/27 08:18:07;;;;;;;36.72;24.38;;;14.10;99.90;;;;;;5032808;28;20408;-68
2022/12/27 08:21:12;;;;;;;40.80;25.33;;;14.10;99.90;;;;;;5032784;28;20040;-69
2022/12/27 08:24:16;;;;;;;37.58;24.77;;;14.20;99.90;;;;;;5032672;28;20052;-69
2022/12/27 08:27:22;;;;;;;34.60;23.20;;;14.30;99.90;;;;;;5032127;28;20049;-69
2022/12/27 08:30:27;;;;;;;36.85;23.27;;;14.30;99.90;;;;;;5032624;28;20049;-68
2022/12/27 08:33:31;;;;;;;29.75;22.95;;;14.30;99.90;;;;;;5032322;28;20044;-69
2022/12/27 08:36:35;;;;;;;50.92;24.17;;;14.40;99.90;;;;;;5032229;28;20036;-68
2022/12/27 08:39:39;;;;;;;38.28;24.20;;;14.50;99.90;;;;;;5032727;28;20409;-70
2022/12/27 08:42:43;;;;;;;41.00;25.20;;;14.50;99.90;;;;;;5042678;28;20044;-69
2022/12/27 08:45:48;;;;;;;39.88;24.17;;;14.50;99.90;;;;;;5032063;28;20048;-69
2022/12/27 08:48:52;;;;;;;43.55;25.27;;;14.50;99.90;;;;;;5031980;28;20053;-69
2022/12/27 08:51:56;;;;;;;39.63;23.42;;;14.50;99.90;;;;;;5031809;28;20064;-69
2022/12/27 08:55:01;;;;;;;37.90;23.55;;;14.50;99.90;;;;;;5031670;28;20069;-69
2022/12/27 08:58:05;;;;;;;42.22;23.83;;;14.60;99.90;;;;;;5031274;28;20056;-69
2022/12/27 09:01:10;;;;;;;36.30;23.17;;;14.60;99.90;;;;;;5031831;28;20044;-69
2022/12/27 09:04:13;;;;;;;36.17;22.27;;;14.60;99.90;;;;;;5031205;28;20044;-70
2022/12/27 09:07:17;;;;;;;34.22;22.55;;;14.60;99.90;;;;;;5030606;28;20052;-69
2022/12/27 09:10:23;;;;;;;40.72;22.92;;;14.70;99.90;;;;;;5031007;28;20056;-69
2022/12/27 09:13:27;;;;;;;29.52;19.38;;;14.70;99.90;;;;;;5030580;28;20366;-69
2022/12/27 09:16:32;;;;;;;33.90;18.08;;;14.80;99.90;;;;;;5029735;28;20048;-69
2022/12/27 09:19:37;;;;;;;22.92;17.25;;;14.80;99.90;;;;;;5030751;28;20048;-69
2022/12/27 09:22:41;;;;;;;26.90;17.38;;;15.00;99.90;;;;;;5030789;28;20044;-69
2022/12/27 09:25:46;;;;;;;34.53;20.85;;;15.20;99.90;;;;;;5030948;28;20044;-69
2022/12/27 09:28:51;;;;;;;29.33;18.05;;;15.30;99.90;;;;;;5031125;28;20052;-69
2022/12/27 09:31:55;;;;;;;26.70;18.17;;;15.50;99.90;;;;;;5031386;28;20040;-69
2022/12/27 09:35:00;;;;;;;25.20;18.35;;;15.70;99.90;;;;;;5031128;28;20408;-69
2022/12/27 09:38:04;;;;;;;30.13;20.35;;;15.70;99.90;;;;;;5031300;28;20045;-69
2022/12/27 09:41:46;;;;;;;26.55;18.67;;;15.70;99.90;;;;;;5030480;28;20080;-69
2022/12/27 09:44:57;;;;;;;23.17;16.60;;;15.70;99.90;;;;;;5026780;28;20060;-69
2022/12/27 09:48:09;;;;;;;29.60;17.33;;;15.70;99.90;;;;;;5031272;28;20508;-69
2022/12/27 09:51:39;;;;;;;26.55;16.95;;;15.70;99.90;;;;;;5031345;28;20044;-69
2022/12/27 09:54:53;;;;;;;29.38;19.13;;;15.70;99.90;;;;;;5032655;28;20052;-69
2022/12/27 09:58:11;;;;;;;26.02;17.90;;;15.70;99.90;;;;;;5031156;28;20056;-69
2022/12/27 10:01:36;;;;;;;29.73;20.05;;;15.70;99.90;;;;;;5030902;28;20399;-69
2022/12/27 10:04:40;;;;;;;37.00;23.33;;;15.80;99.90;;;;;;5030689;28;20049;-69
2022/12/27 10:08:10;;;;;;;34.20;21.50;;;15.90;99.90;;;;;;5030662;28;20519;-69
2022/12/27 10:11:35;;;;;;;29.83;18.88;;;16.00;99.90;;;;;;5030545;28;20028;-69
2022/12/27 10:15:03;;;;;;;30.98;18.95;;;16.20;99.90;;;;;;5030596;28;20048;-69
2022/12/27 10:18:43;;;;;;;28.42;19.52;;;16.30;99.90;;;;;;5030891;28;20064;-69
2022/12/27 10:21:57;;;;;;;27.88;18.30;;;16.60;99.90;;;;;;5031347;28;20369;-69
2022/12/27 10:25:09;;;;;;;31.55;20.55;;;16.60;99.90;;;;;;5030809;28;20049;-69
2022/12/27 10:28:18;;;;;;;;;;;16.60;99.90;;;;;;5031125;28;20048;-67
2022/12/27 10:31:23;;;;;;;28.70;16.63;;;16.60;99.90;;;;;;5030646;28;19909;-69
2022/12/27 10:34:27;;;;;;;20.35;14.20;;;16.60;99.90;;;;;;5030609;28;20049;-69
2022/12/27 10:37:31;;;;;;;19.13;13.05;;;16.60;99.90;;;;;;5041152;28;20432;-69
2022/12/27 10:41:02;;;;;;;20.90;14.27;;;16.60;99.90;;;;;;5030854;28;20037;-69
2022/12/27 10:44:11;;;;;;;21.13;13.70;;;16.70;99.90;;;;;;5033767;28;20505;-69
2022/12/27 10:47:15;;;;;;;27.45;14.38;;;16.70;99.90;;;;;;5030342;28;20060;-69
2022/12/27 10:50:23;;;;;;;28.90;15.57;;;16.80;99.90;;;;;;5030364;28;20060;-68
2022/12/27 10:53:33;;;;;;;29.67;14.98;;;16.90;99.90;;;;;;5034471;28;20056;-68
2022/12/27 10:56:40;;;;;;;21.58;14.52;;;17.10;99.90;;;;;;5033801;28;20057;-69
2022/12/27 10:59:44;;;;;;;21.02;13.05;;;17.10;99.90;;;;;;5034124;28;20144;-68
2022/12/27 11:02:50;;;;;;;19.88;13.88;;;17.10;99.90;;;;;;5034106;28;20044;-68
2022/12/27 11:06:02;;;;;;;20.85;13.50;;;17.30;99.90;;;;;;5033158;28;20404;-68
2022/12/27 11:09:25;;;;;;;17.60;11.35;;;17.30;99.90;;;;;;5034280;28;20060;-67
2022/12/27 11:12:31;;;;;;;23.50;13.75;;;17.30;99.90;;;;;;5033551;28;20040;-69
2022/12/27 11:15:39;;;;;;;23.45;13.88;;;17.30;99.90;;;;;;5033919;28;20052;-69
2022/12/27 11:18:49;;;;;;;23.70;13.48;;;17.20;99.90;;;;;;5033633;28;20112;-67
2022/12/27 11:21:55;;;;;;;16.70;10.43;;;17.20;99.90;;;;;;5033227;28;20493;-67
2022/12/27 11:24:59;;;;;;;20.67;12.90;;;17.10;99.90;;;;;;5042481;28;20040;-67
2022/12/27 11:28:05;;;;;;;20.55;12.35;;;17.10;99.90;;;;;;5033426;28;20060;-67
2022/12/27 11:31:15;;;;;;;18.30;10.93;;;17.10;99.90;;;;;;5032861;28;20060;-68
2022/12/27 11:34:30;;;;;;;11.68;9.45;;;17.10;99.90;;;;;;5033516;28;20060;-67
2022/12/27 11:37:39;;;;;;;17.75;11.63;;;17.10;99.90;;;;;;5033230;28;20389;-68
2022/12/27 11:40:43;;;;;;;17.08;9.77;;;17.10;99.90;;;;;;5033431;28;20116;-67
2022/12/27 11:43:53;;;;;;;18.20;11.60;;;17.10;99.90;;;;;;5033517;28;20504;-68
2022/12/27 11:47:14;;;;;;;18.90;11.48;;;17.20;99.90;;;;;;5032915;28;20049;-68
2022/12/27 11:50:27;;;;;;;22.85;10.35;;;17.30;99.90;;;;;;5033306;28;20040;-67
2022/12/27 11:53:31;;;;;;;16.98;10.30;;;17.30;99.90;;;;;;5033444;28;20048;-67
2022/12/27 11:56:42;;;;;;;14.70;9.18;;;17.30;99.90;;;;;;5032943;28;20052;-68
2022/12/27 12:00:13;;;;;;;12.35;9.02;;;17.30;99.90;;;;;;5043713;28;20044;-67
2022/12/27 12:03:51;;;;;;;13.48;8.52;;;17.30;99.90;;;;;;5031291;28;20350;-67
2022/12/27 12:07:36;;;;;;;16.48;10.73;;;17.20;99.90;;;;;;5032668;28;20057;-67
2022/12/27 12:11:04;;;;;;;14.30;9.98;;;17.20;99.90;;;;;;5032089;28;20401;-68
2022/12/27 12:14:29;;;;;;;20.02;10.85;;;17.20;99.90;;;;;;5032869;28;20052;-67
2022/12/27 12:17:45;;;;;;;15.95;9.38;;;17.30;99.90;;;;;;5032744;28;20499;-69
2022/12/27 12:21:16;;;;;;;17.10;10.65;;;17.30;99.90;;;;;;5033327;28;20048;-69
2022/12/27 12:24:35;;;;;;;13.63;9.73;;;17.20;99.90;;;;;;5032336;28;20040;-68
2022/12/27 12:28:03;;;;;;;19.60;12.60;;;17.20;99.90;;;;;;5032157;28;20056;-68
2022/12/27 12:31:34;;;;;;;18.10;12.27;;;17.20;99.90;;;;;;5032684;28;20228;-69
2022/12/27 12:34:50;;;;;;;18.77;12.00;;;17.20;99.90;;;;;;5032713;28;20405;-69
2022/12/27 12:38:16;;;;;;;18.67;12.43;;;17.30;99.90;;;;;;5032735;28;20044;-69
2022/12/27 12:41:38;;;;;;;20.05;12.32;;;17.30;99.90;;;;;;5032580;28;20044;-69
2022/12/27 12:44:51;;;;;;;12.88;9.50;;;17.40;99.90;;;;;;5031540;28;20461;-69
2022/12/27 12:48:19;;;;;;;20.90;12.35;;;17.40;99.90;;;;;;5032126;28;20060;-69
2022/12/27 12:51:37;;;;;;;19.63;11.52;;;17.40;99.90;;;;;;5032526;28;20048;-69
2022/12/27 12:54:59;;;;;;;24.90;12.90;;;17.40;99.90;;;;;;5042595;28;20060;-70
2022/12/27 12:58:12;;;;;;;20.17;13.10;;;17.30;99.90;;;;;;5032156;28;20397;-70
2022/12/27 13:01:51;;;;;;;15.95;11.25;;;17.30;99.90;;;;;;5031778;28;20048;-69
2022/12/27 13:05:33;;;;;;;25.58;13.63;;;17.30;99.90;;;;;;5031639;28;20042;-69
2022/12/27 13:08:55;;;;;;;17.13;12.38;;;17.20;99.90;;;;;;5032034;28;20057;-70
2022/12/27 13:12:07;;;;;;;22.45;13.50;;;17.20;99.90;;;;;;5031670;28;20052;-69
2022/12/27 13:15:15;;;;;;;20.02;13.20;;;17.20;99.90;;;;;;5031873;28;20068;-70
2022/12/27 13:18:40;;;;;;;16.20;11.13;;;17.20;99.90;;;;;;5031054;28;20492;-70
2022/12/27 13:22:15;;;;;;;22.70;12.80;;;17.10;99.90;;;;;;5030745;28;20049;-70
2022/12/27 13:25:40;;;;;;;19.13;13.52;;;17.10;99.90;;;;;;5031281;28;20056;-70
2022/12/27 13:29:02;;;;;;;23.35;14.38;;;17.10;99.90;;;;;;5030416;28;20053;-69
2022/12/27 13:32:11;;;;;;;19.63;13.88;;;17.10;99.90;;;;;;5042061;28;20041;-69
2022/12/27 13:35:15;;;;;;;18.02;11.68;;;17.10;99.90;;;;;;5031352;28;20420;-67
2022/12/27 13:38:43;;;;;;;16.45;11.38;;;17.10;99.90;;;;;;5031599;28;20044;-68
2022/12/27 13:42:23;;;;;;;13.07;9.63;;;17.10;99.90;;;;;;5028751;28;20040;-68
2022/12/27 13:45:56;;;;;;;14.07;10.30;;;17.10;99.90;;;;;;5030349;28;20053;-69
2022/12/27 13:49:15;;;;;;;18.33;12.73;;;17.10;99.90;;;;;;5027920;28;20052;-68
2022/12/27 13:52:22;;;;;;;17.67;12.48;;;17.10;99.90;;;;;;5031019;28;20389;-68
2022/12/27 13:55:55;;;;;;;18.42;11.75;;;17.10;99.90;;;;;;5031180;28;20373;-67
2022/12/27 13:59:24;;;;;;;24.85;14.27;;;17.10;99.90;;;;;;5030054;28;20076;-67
2022/12/27 14:02:42;;;;;;;17.10;10.05;;;17.10;99.90;;;;;;5031104;28;20060;-67
2022/12/27 14:06:37;;;;;;;12.57;8.57;;;17.10;99.90;;;;;;5030836;28;20052;-67
2022/12/27 14:10:05;;;;;;;15.25;8.38;;;17.10;99.90;;;;;;5008475;28;20230;-67
2022/12/27 14:13:10;;;;;;;19.77;8.15;;;17.10;99.90;;;;;;5030224;28;20116;-67
2022/12/27 14:16:37;;;;;;;14.63;8.52;;;17.20;99.90;;;;;;5030073;28;20049;-68
2022/12/27 14:19:56;;;;;;;13.98;7.85;;;17.10;99.90;;;;;;5041242;28;20053;-69
2022/12/27 14:23:18;;;;;;;12.88;6.95;;;17.20;99.90;;;;;;5030120;28;20048;-70
2022/12/27 14:26:38;;;;;;;13.75;9.10;;;17.10;99.90;;;;;;5032034;28;20509;-71
2022/12/27 14:29:57;;;;;;;17.92;9.13;;;17.10;99.90;;;;;;5045457;28;20060;-70
2022/12/27 14:33:20;;;;;;;15.40;9.13;;;17.10;99.90;;;;;;5035196;28;20374;-70
2022/12/27 14:37:02;;;;;;;12.90;8.70;;;17.00;99.90;;;;;;5034616;28;20044;-69
2022/12/27 14:40:24;;;;;;;;;;;17.00;99.90;;;;;;5034755;28;20196;-69
2022/12/27 14:44:06;;;;;;;21.80;11.50;;;17.00;99.90;;;;;;5034773;28;20248;-69
2022/12/27 14:47:40;;;;;;;18.00;9.65;;;17.00;99.90;;;;;;5034396;28;20060;-68
2022/12/27 14:50:44;;;;;;;11.77;9.10;;;16.90;99.90;;;;;;5034315;28;20040;-68
2022/12/27 14:54:00;;;;;;;21.33;11.25;;;16.90;99.90;;;;;;5034337;28;20048;-69
2022/12/27 14:57:20;;;;;;;13.63;9.38;;;17.00;99.90;;;;;;5032664;28;20061;-69
2022/12/27 15:00:27;;;;;;;17.80;10.15;;;16.90;99.90;;;;;;5033935;28;20039;-68
2022/12/27 15:03:53;;;;;;;10.25;7.03;;;16.90;99.90;;;;;;5033833;28;20048;-69
2022/12/27 15:07:27;;;;;;;16.17;8.63;;;16.90;99.90;;;;;;5044362;28;20532;-68
2022/12/27 15:10:50;;;;;;;31.60;19.05;;;16.90;99.90;;;;;;5034072;28;20044;-68
2022/12/27 15:13:57;;;;;;;39.33;21.00;;;16.90;99.90;;;;;;5034084;28;20093;-69
2022/12/27 15:17:04;;;;;;;39.17;19.73;;;16.90;99.90;;;;;;5033132;28;20392;-69
2022/12/27 15:20:33;;;;;;;33.85;17.15;;;16.90;99.90;;;;;;5033398;28;20045;-68
2022/12/27 15:23:46;;;;;;;27.38;16.13;;;16.80;99.90;;;;;;5033804;28;20390;-69
2022/12/27 15:26:53;;;;;;;27.65;15.27;;;16.80;99.90;;;;;;5033717;28;20045;-69
2022/12/27 15:30:16;;;;;;;26.48;14.50;;;16.80;99.90;;;;;;5033533;28;20040;-69
2022/12/27 15:33:38;;;;;;;19.23;12.50;;;16.80;99.90;;;;;;5033568;28;20449;-69
2022/12/27 15:36:45;;;;;;;31.40;15.73;;;16.70;99.90;;;;;;5032483;28;20049;-69
2022/12/27 15:39:49;;;;;;;37.85;20.77;;;16.70;99.90;;;;;;5033575;28;20072;-68
2022/12/27 15:43:49;;;;;;;52.35;25.80;;;16.60;99.90;;;;;;5032233;28;20057;-68
2022/12/27 15:47:17;;;;;;;58.58;26.30;;;16.60;99.90;;;;;;5028358;28;20049;-69
2022/12/27 15:51:16;;;;;;;40.08;22.27;;;16.60;99.90;;;;;;5033013;28;20036;-70
2022/12/27 15:54:41;;;;;;;29.98;18.00;;;16.60;99.90;;;;;;5020332;28;20068;-69
2022/12/27 15:58:00;;;;;;;22.30;14.00;;;16.50;99.90;;;;;;5033204;28;20056;-69
2022/12/27 16:01:16;;;;;;;18.30;13.82;;;16.50;99.90;;;;;;5033075;28;20053;-69
2022/12/27 16:04:52;;;;;;;22.60;13.70;;;16.50;99.90;;;;;;5032800;28;20048;-68
2022/12/27 16:08:02;;;;;;;25.50;14.43;;;16.50;99.90;;;;;;5007540;28;20048;-69
2022/12/27 16:11:11;;;;;;;25.48;14.90;;;16.40;99.90;;;;;;5032539;28;20049;-68
2022/12/27 16:14:27;;;;;;;29.00;14.45;;;16.40;99.90;;;;;;5032607;28;20049;-68
2022/12/27 16:17:48;;;;;;;25.27;15.90;;;16.40;99.90;;;;;;5032804;28;20040;-69
2022/12/27 16:21:11;;;;;;;26.65;15.88;;;16.40;99.90;;;;;;5032738;28;20052;-68
2022/12/27 16:24:22;;;;;;;20.08;12.48;;;16.40;99.90;;;;;;5031788;28;20044;-68
2022/12/27 16:27:31;;;;;;;18.15;12.30;;;16.40;99.90;;;;;;5032304;28;20524;-69
2022/12/27 16:30:57;;;;;;;18.58;11.73;;;16.30;99.90;;;;;;5031209;28;20040;-67
2022/12/27 16:34:32;;;;;;;18.38;13.02;;;16.40;99.90;;;;;;5032368;28;20400;-68
2022/12/27 16:37:52;;;;;;;22.88;14.40;;;16.30;99.90;;;;;;5032141;28;20068;-68
2022/12/27 16:41:28;;;;;;;19.58;13.48;;;16.30;99.90;;;;;;5032364;28;20386;-67
2022/12/27 16:44:52;;;;;;;23.45;17.27;;;16.30;99.90;;;;;;5032260;28;20048;-69
2022/12/27 16:48:05;;;;;;;32.42;17.83;;;16.40;99.90;;;;;;5031669;28;20094;-69
2022/12/27 16:51:53;;;;;;;32.60;20.40;;;16.40;99.90;;;;;;5031631;28;20049;-69
2022/12/27 16:55:14;;;;;;;33.75;21.45;;;16.40;99.90;;;;;;5031641;28;20053;-69
2022/12/27 16:58:32;;;;;;;26.70;18.42;;;16.30;99.90;;;;;;5031915;28;20056;-68
2022/12/27 17:01:36;;;;;;;26.20;19.25;;;16.30;99.90;;;;;;5031667;28;20045;-66
2022/12/27 17:04:57;;;;;;;29.30;19.00;;;16.30;99.90;;;;;;5031948;28;20060;-67
2022/12/27 17:08:00;;;;;;;31.00;20.37;;;16.30;99.90;;;;;;5031634;28;20084;-67
2022/12/27 17:11:24;;;;;;;33.15;21.92;;;16.30;99.90;;;;;;5031669;28;20287;-67
2022/12/27 17:14:34;;;;;;;29.40;21.08;;;16.30;99.90;;;;;;5031553;28;20053;-67
2022/12/27 17:17:38;;;;;;;28.05;19.20;;;16.30;99.90;;;;;;5031739;28;20212;-67
2022/12/27 17:20:43;;;;;;;31.65;20.10;;;16.30;99.90;;;;;;5031518;28;20052;-69
2022/12/27 17:23:49;;;;;;;23.88;17.27;;;16.30;99.90;;;;;;5031599;28;20504;-69
2022/12/27 17:27:35;;;;;;;28.02;18.83;;;16.40;99.90;;;;;;5031392;28;20060;-69
2022/12/27 17:31:03;;;;;;;32.75;19.70;;;16.40;99.90;;;;;;5030418;28;20068;-70
2022/12/27 17:34:12;;;;;;;30.85;20.10;;;16.30;99.90;;;;;;5031008;28;20068;-71
2022/12/27 17:37:34;;;;;;;37.53;23.85;;;16.30;99.90;;;;;;5031157;28;20405;-69
2022/12/27 17:40:57;;;;;;;40.75;26.40;;;16.30;99.90;;;;;;5029982;28;20048;-69
2022/12/27 17:47:49;;;;;;;45.25;29.73;;;16.30;99.90;;;;;;5030556;28;20072;-69
2022/12/27 17:50:56;;;;;;;34.92;25.40;;;16.20;99.90;;;;;;5030866;28;20044;-68
2022/12/27 17:57:53;;;;;;;34.15;24.13;;;16.20;99.90;;;;;;5030488;28;20072;-70
2022/12/27 18:01:00;;;;;;;36.42;25.10;;;16.20;99.90;;;;;;5030122;28;20044;-69
2022/12/27 18:04:05;;;;;;;40.35;27.33;;;16.20;99.90;;;;;;5031268;28;20484;-69
2022/12/27 18:07:13;;;;;;;39.00;27.23;;;16.20;99.90;;;;;;5030254;28;20044;-69
2022/12/27 18:10:26;;;;;;;42.42;28.88;;;16.20;99.90;;;;;;5030569;28;20060;-69